createdAt,value
2023-04-20T00:01:11.710Z,7.28
2023-04-20T00:03:38.614Z,7.24
2023-04-20T00:06:05.602Z,7.21
2023-04-20T00:08:32.110Z,7.24
2023-04-20T00:10:58.676Z,7.22
2023-04-20T00:13:26.247Z,7.26
2023-04-20T00:15:52.830Z,7.29
2023-04-20T00:18:19.480Z,7.32
2023-04-20T00:20:45.981Z,7.34
2023-04-20T00:23:12.509Z,7.33
2023-04-20T00:25:39.064Z,7.30
2023-04-20T00:28:06.086Z,7.32
2023-04-20T00:30:32.756Z,7.33
2023-04-20T00:32:59.407Z,7.32
2023-04-20T00:35:26.138Z,7.29
2023-04-20T00:37:52.656Z,7.24
2023-04-20T00:40:19.251Z,7.22
2023-04-20T00:42:45.825Z,7.20
2023-04-20T00:45:12.370Z,7.18
2023-04-20T00:47:39.024Z,7.13
2023-04-20T00:50:07.348Z,7.08
2023-04-20T00:52:35.027Z,7.06
2023-04-20T00:55:03.290Z,7.04
2023-04-20T00:57:31.120Z,7.04
2023-04-20T00:59:57.769Z,7.03
2023-04-20T01:02:24.625Z,7.02
2023-04-20T01:04:51.275Z,7.02
2023-04-20T01:07:17.793Z,7.02
2023-04-20T01:09:44.380Z,6.99
2023-04-20T01:12:11.719Z,6.98
2023-04-20T01:14:38.293Z,7.07
2023-04-20T01:17:06.002Z,7.12
2023-04-20T01:19:33.503Z,7.11
2023-04-20T01:22:00.102Z,7.10
2023-04-20T01:24:27.718Z,7.12
2023-04-20T01:26:54.326Z,7.10
2023-04-20T01:29:20.985Z,7.12
2023-04-20T01:31:47.736Z,7.13
2023-04-20T01:34:15.286Z,7.13
2023-04-20T01:36:41.869Z,7.11
2023-04-20T01:39:08.881Z,7.06
2023-04-20T01:41:35.801Z,7.00
2023-04-20T01:44:02.570Z,6.96
2023-04-20T01:46:29.359Z,6.94
2023-04-20T01:48:56.041Z,6.96
2023-04-20T01:51:22.622Z,6.96
2023-04-20T01:53:49.143Z,6.92
2023-04-20T01:56:16.239Z,6.89
2023-04-20T01:58:42.790Z,6.87
2023-04-20T02:01:09.370Z,6.81
2023-04-20T02:03:36.122Z,6.76
2023-04-20T02:06:02.832Z,6.76
2023-04-20T02:08:29.520Z,6.73
2023-04-20T02:10:56.061Z,6.67
2023-04-20T02:13:22.571Z,6.65
2023-04-20T02:15:49.098Z,6.64
2023-04-20T02:18:16.438Z,6.61
2023-04-20T02:20:44.324Z,6.55
2023-04-20T02:23:11.317Z,6.52
2023-04-20T02:25:38.203Z,6.51
2023-04-20T02:28:05.640Z,6.47
2023-04-20T02:30:32.205Z,6.44
2023-04-20T02:33:00.111Z,6.39
2023-04-20T02:35:26.960Z,6.34
2023-04-20T02:37:53.550Z,6.33
2023-04-20T02:40:20.116Z,6.32
2023-04-20T02:42:46.863Z,6.27
2023-04-20T02:45:13.481Z,6.22
2023-04-20T02:47:40.101Z,6.18
2023-04-20T02:50:07.467Z,6.17
2023-04-20T02:52:34.214Z,6.15
2023-04-20T02:55:01.065Z,6.15
2023-04-20T02:57:27.692Z,6.16
2023-04-20T02:59:54.239Z,6.13
2023-04-20T03:02:20.908Z,6.12
2023-04-20T03:04:47.661Z,6.12
2023-04-20T03:07:16.593Z,6.08
2023-04-20T03:09:43.390Z,6.06
2023-04-20T03:12:09.994Z,6.09
2023-04-20T03:14:36.530Z,6.09
2023-04-20T03:17:03.070Z,6.07
2023-04-20T03:19:29.733Z,6.06
2023-04-20T03:21:56.282Z,6.03
2023-04-20T03:24:23.977Z,6.00
2023-04-20T03:26:50.847Z,5.99
2023-04-20T03:29:17.580Z,5.99
2023-04-20T03:31:44.532Z,5.99
2023-04-20T03:34:11.213Z,5.97
2023-04-20T03:36:37.840Z,5.97
2023-04-20T03:39:04.606Z,5.96
2023-04-20T03:41:31.912Z,5.96
2023-04-20T03:43:58.492Z,5.97
2023-04-20T03:46:25.263Z,6.01
2023-04-20T03:48:52.025Z,6.02
2023-04-20T03:51:18.759Z,6.02
2023-04-20T03:53:45.373Z,6.09
2023-04-20T03:56:12.031Z,6.14
2023-04-20T03:58:38.671Z,6.16
2023-04-20T04:01:09.856Z,6.16
2023-04-20T04:03:36.841Z,6.12
2023-04-20T04:06:04.426Z,6.10
2023-04-20T04:08:32.167Z,6.05
2023-04-20T04:11:00.197Z,6.05
2023-04-20T04:13:26.906Z,6.03
2023-04-20T04:15:53.556Z,6.02
2023-04-20T04:18:21.707Z,6.01
2023-04-20T04:20:48.377Z,5.97
2023-04-20T04:23:15.384Z,5.97
2023-04-20T04:25:42.296Z,6.00
2023-04-20T04:28:09.156Z,6.03
2023-04-20T04:30:35.801Z,6.01
2023-04-20T04:33:05.002Z,5.99
2023-04-20T04:35:33.388Z,5.96
2023-04-20T04:38:00.809Z,5.92
2023-04-20T04:40:27.331Z,5.92
2023-04-20T04:42:53.909Z,5.93
2023-04-20T04:45:20.753Z,5.99
2023-04-20T04:47:47.306Z,6.02
2023-04-20T04:50:13.905Z,6.07
2023-04-20T04:52:40.636Z,6.17
2023-04-20T04:55:09.242Z,6.59
2023-04-20T04:57:36.300Z,7.21
2023-04-20T05:00:04.636Z,7.81
2023-04-20T05:02:31.501Z,8.27
2023-04-20T05:04:58.433Z,8.60
2023-04-20T05:07:24.985Z,8.89
2023-04-20T05:09:51.596Z,9.16
2023-04-20T05:12:19.263Z,9.06
2023-04-20T05:14:45.833Z,8.90
2023-04-20T05:17:12.436Z,8.68
2023-04-20T05:19:38.959Z,8.38
2023-04-20T05:22:05.696Z,8.13
2023-04-20T05:24:32.256Z,7.92
2023-04-20T05:26:58.791Z,7.75
2023-04-20T05:29:25.450Z,7.71
2023-04-20T05:31:52.033Z,7.59
2023-04-20T05:34:18.571Z,7.50
2023-04-20T05:36:46.901Z,7.48
2023-04-20T05:39:13.458Z,7.45
2023-04-20T05:41:40.002Z,7.45
2023-04-20T05:44:06.547Z,7.47
2023-04-20T05:46:33.059Z,7.51
2023-04-20T05:48:59.658Z,7.52
2023-04-20T05:51:29.072Z,7.51
2023-04-20T05:53:55.637Z,7.47
2023-04-20T05:56:22.211Z,7.52
2023-04-20T05:58:49.097Z,7.55
2023-04-20T06:01:15.744Z,7.64
2023-04-20T06:03:42.654Z,7.70
2023-04-20T06:06:09.358Z,7.76
2023-04-20T06:08:36.484Z,7.83
2023-04-20T06:11:03.081Z,7.83
2023-04-20T06:13:29.671Z,7.77
2023-04-20T06:15:56.326Z,7.75
2023-04-20T06:18:22.933Z,7.78
2023-04-20T06:20:49.525Z,7.75
2023-04-20T06:23:16.294Z,7.77
2023-04-20T06:25:42.900Z,7.83
2023-04-20T06:28:09.505Z,7.90
2023-04-20T06:30:36.216Z,7.90
2023-04-20T06:33:03.662Z,7.89
2023-04-20T06:35:30.528Z,7.87
2023-04-20T06:37:57.663Z,7.84
2023-04-20T06:40:27.836Z,7.85
2023-04-20T06:42:54.700Z,7.92
2023-04-20T06:45:21.281Z,7.96
2023-04-20T06:47:48.149Z,7.96
2023-04-20T06:50:14.846Z,7.99
2023-04-20T06:52:41.511Z,8.02
2023-04-20T06:55:08.662Z,8.02
2023-04-20T06:57:35.457Z,7.99
2023-04-20T07:00:03.289Z,7.97
2023-04-20T07:02:29.922Z,7.95
2023-04-20T07:05:02.740Z,7.90
2023-04-20T07:07:29.484Z,7.89
2023-04-20T07:09:56.003Z,7.93
2023-04-20T07:12:22.533Z,7.98
2023-04-20T07:14:49.037Z,8.05
2023-04-20T07:17:15.642Z,8.13
2023-04-20T07:19:42.168Z,8.24
2023-04-20T07:22:08.775Z,8.26
2023-04-20T07:24:35.348Z,8.31
2023-04-20T07:27:02.688Z,8.41
2023-04-20T07:29:29.291Z,8.52
2023-04-20T07:31:55.912Z,8.61
2023-04-20T07:34:22.851Z,8.65
2023-04-20T07:36:49.359Z,8.70
2023-04-20T07:39:16.332Z,8.76
2023-04-20T07:41:43.808Z,8.79
2023-04-20T07:44:11.192Z,8.83
2023-04-20T07:46:38.295Z,8.81
2023-04-20T07:49:05.037Z,8.83
2023-04-20T07:51:33.383Z,8.90
2023-04-20T07:54:00.367Z,8.93
2023-04-20T07:56:27.144Z,9.00
2023-04-20T07:58:53.722Z,9.11
2023-04-20T08:01:25.476Z,9.20
2023-04-20T08:03:52.888Z,9.31
2023-04-20T08:06:19.512Z,9.35
2023-04-20T08:08:46.198Z,9.33
2023-04-20T08:11:13.361Z,9.26
2023-04-20T08:13:41.412Z,9.22
2023-04-20T08:16:07.975Z,9.16
2023-04-20T08:18:34.586Z,9.14
2023-04-20T08:21:01.153Z,9.15
2023-04-20T08:23:28.158Z,9.25
2023-04-20T08:25:55.283Z,9.31
2023-04-20T08:30:56.620Z,9.47
2023-04-20T08:33:23.384Z,9.53
2023-04-20T08:35:53.375Z,9.51
2023-04-20T08:38:30.655Z,9.52
2023-04-20T08:41:00.276Z,9.44
2023-04-20T08:43:26.819Z,9.26
2023-04-20T08:45:58.019Z,9.10
2023-04-20T08:48:25.523Z,9.04
2023-04-20T08:50:52.326Z,9.11
2023-04-20T08:53:18.922Z,9.16
2023-04-20T08:55:45.841Z,9.19
2023-04-20T08:58:12.669Z,9.20
2023-04-20T09:00:49.432Z,9.17
2023-04-20T09:03:16.198Z,9.21
2023-04-20T09:05:44.816Z,9.23
2023-04-20T09:08:11.385Z,9.18
2023-04-20T09:10:44.046Z,9.19
2023-04-20T09:13:22.840Z,9.12
2023-04-20T09:15:49.502Z,9.10
2023-04-20T09:18:16.230Z,9.04
2023-04-20T09:20:43.301Z,9.03
2023-04-20T09:23:14.718Z,9.04
2023-04-20T09:25:43.304Z,9.03
2023-04-20T09:28:10.302Z,9.11
2023-04-20T09:30:38.900Z,9.16
2023-04-20T09:33:06.987Z,9.03
2023-04-20T09:35:33.929Z,8.87
2023-04-20T09:38:00.647Z,8.76
2023-04-20T09:40:27.706Z,8.76
2023-04-20T09:42:54.994Z,8.72
2023-04-20T09:45:21.629Z,8.69
2023-04-20T09:47:50.000Z,8.76
2023-04-20T09:50:26.701Z,8.83
2023-04-20T09:52:56.869Z,8.89
2023-04-20T09:55:24.621Z,8.80
2023-04-20T09:57:52.516Z,8.77
2023-04-20T10:00:19.558Z,8.81
2023-04-20T10:02:48.484Z,8.84
2023-04-20T10:05:16.945Z,8.84
2023-04-20T10:07:44.426Z,8.85
2023-04-20T10:10:13.697Z,8.85
2023-04-20T10:12:54.648Z,8.81
2023-04-20T10:15:22.140Z,8.86
2023-04-20T10:17:49.203Z,8.89
2023-04-20T10:20:24.225Z,8.95
2023-04-20T10:23:05.955Z,9.06
2023-04-20T10:25:32.553Z,9.14
2023-04-20T10:28:03.120Z,9.05
2023-04-20T10:30:29.941Z,8.97
2023-04-20T10:33:11.480Z,8.83
2023-04-20T10:35:49.663Z,8.71
2023-04-20T10:38:28.614Z,8.69
2023-04-20T10:40:55.445Z,8.72
2023-04-20T10:43:22.790Z,8.88
2023-04-20T10:45:50.338Z,9.04
2023-04-20T10:48:18.330Z,9.19
2023-04-20T10:50:45.572Z,9.33
2023-04-20T10:53:23.544Z,9.39
2023-04-20T10:56:00.244Z,9.56
2023-04-20T10:58:27.466Z,9.68
2023-04-20T11:01:01.949Z,9.87
2023-04-20T11:03:30.421Z,10.07
2023-04-20T11:06:04.233Z,10.02
2023-04-20T11:08:41.756Z,9.84
2023-04-20T11:11:30.265Z,9.67
2023-04-20T11:14:10.468Z,9.53
2023-04-20T11:16:50.525Z,9.46
2023-04-20T11:19:47.716Z,9.50
2023-04-20T11:22:21.823Z,9.49
2023-04-20T11:24:48.440Z,9.53
2023-04-20T11:27:22.263Z,9.60
2023-04-20T11:29:58.397Z,9.66
2023-04-20T11:32:26.362Z,9.79
2023-04-20T11:35:07.072Z,9.96
2023-04-20T11:37:48.092Z,10.18
2023-04-20T11:40:15.298Z,10.32
2023-04-20T11:42:41.928Z,10.30
2023-04-20T11:45:08.818Z,10.37
2023-04-20T11:47:35.412Z,10.52
2023-04-20T11:50:02.037Z,10.54
2023-04-20T11:52:28.584Z,10.48
2023-04-20T11:54:55.100Z,10.62
2023-04-20T11:57:23.940Z,10.65
2023-04-20T11:59:50.587Z,10.70
2023-04-20T12:02:17.279Z,10.73
2023-04-20T12:04:44.227Z,10.67
2023-04-20T12:07:11.098Z,10.65
2023-04-20T12:09:38.439Z,10.61
2023-04-20T12:12:06.163Z,10.63
2023-04-20T12:14:34.610Z,10.79
2023-04-20T12:17:02.400Z,10.82
2023-04-20T12:19:28.887Z,10.81
2023-04-20T12:21:55.948Z,10.79
2023-04-20T12:24:22.821Z,10.74
2023-04-20T12:26:49.368Z,10.65
2023-04-20T12:29:16.662Z,10.64
2023-04-20T12:31:43.539Z,10.72
2023-04-20T12:34:10.694Z,10.89
2023-04-20T12:36:37.219Z,11.11
2023-04-20T12:39:04.273Z,11.28
2023-04-20T12:41:30.875Z,11.35
2023-04-20T12:43:57.359Z,11.40
2023-04-20T12:46:24.126Z,11.52
2023-04-20T12:48:50.909Z,11.70
2023-04-20T12:51:17.486Z,11.79
2023-04-20T12:53:44.444Z,11.84
2023-04-20T12:56:11.220Z,11.77
2023-04-20T12:58:37.712Z,11.78
2023-04-20T13:01:04.321Z,12.01
2023-04-20T13:03:31.272Z,12.33
2023-04-20T13:05:58.929Z,12.66
2023-04-20T13:08:25.942Z,12.89
2023-04-20T13:10:52.521Z,12.88
2023-04-20T13:13:19.163Z,12.88
2023-04-20T13:15:45.754Z,12.87
2023-04-20T13:18:13.663Z,12.87
2023-04-20T13:20:40.737Z,12.87
2023-04-20T13:23:07.442Z,12.82
2023-04-20T13:25:34.121Z,12.88
2023-04-20T13:28:02.985Z,13.02
2023-04-20T13:30:29.645Z,13.31
2023-04-20T13:32:56.521Z,13.51
2023-04-20T13:35:24.262Z,13.67
2023-04-20T13:37:51.377Z,13.89
2023-04-20T13:40:17.980Z,13.80
2023-04-20T13:42:44.556Z,13.91
2023-04-20T13:45:12.100Z,14.09
2023-04-20T13:47:39.664Z,14.15
2023-04-20T13:50:07.512Z,14.43
2023-04-20T13:52:34.195Z,14.82
2023-04-20T13:55:00.828Z,15.13
2023-04-20T13:57:27.434Z,15.47
2023-04-20T13:59:54.034Z,15.95
2023-04-20T14:02:21.209Z,16.54
2023-04-20T14:04:48.142Z,16.89
2023-04-20T14:07:14.743Z,16.59
2023-04-20T14:09:41.368Z,16.46
2023-04-20T14:12:07.944Z,16.30
2023-04-20T14:14:34.608Z,16.29
2023-04-20T14:17:01.993Z,16.08
2023-04-20T14:19:28.622Z,16.17
2023-04-20T14:21:55.244Z,16.60
2023-04-20T14:24:21.771Z,17.26
2023-04-20T14:26:48.403Z,17.80
2023-04-20T14:29:14.979Z,18.01
2023-04-20T14:31:41.545Z,18.51
2023-04-20T14:34:09.402Z,19.03
2023-04-20T14:36:35.939Z,19.46
2023-04-20T14:39:02.563Z,19.73
2023-04-20T14:41:30.241Z,20.01
2023-04-20T14:43:57.723Z,20.34
2023-04-20T14:46:24.353Z,20.75
2023-04-20T14:48:51.035Z,20.87
2023-04-20T14:51:19.799Z,20.59
2023-04-20T14:53:46.493Z,19.83
2023-04-20T14:56:13.070Z,19.02
2023-04-20T14:58:42.342Z,18.09
2023-04-20T15:01:08.908Z,17.37
2023-04-20T15:03:35.813Z,17.65
2023-04-20T15:06:03.627Z,18.01
2023-04-20T15:08:30.688Z,18.15
2023-04-20T15:10:57.396Z,18.05
2023-04-20T15:13:25.092Z,18.03
2023-04-20T15:15:54.810Z,17.77
2023-04-20T15:18:22.035Z,17.51
2023-04-20T15:20:51.147Z,17.54
2023-04-20T15:23:17.741Z,17.50
2023-04-20T15:25:44.506Z,17.51
2023-04-20T15:28:11.271Z,17.38
2023-04-20T15:30:37.881Z,16.94
2023-04-20T15:33:05.643Z,16.74
2023-04-20T15:35:33.092Z,16.19
2023-04-20T15:37:59.624Z,15.32
2023-04-20T15:40:27.567Z,14.48
2023-04-20T15:42:57.480Z,13.72
2023-04-20T15:45:24.559Z,13.10
2023-04-20T15:47:51.656Z,12.67
2023-04-20T15:50:18.503Z,12.42
2023-04-20T15:52:45.836Z,12.22
2023-04-20T15:55:12.435Z,12.04
2023-04-20T15:57:39.061Z,11.98
2023-04-20T16:00:07.298Z,11.96
2023-04-20T16:02:34.234Z,12.01
2023-04-20T16:05:01.002Z,12.16
2023-04-20T16:07:27.788Z,12.26
2023-04-20T16:09:54.336Z,12.50
2023-04-20T16:12:20.885Z,12.93
2023-04-20T16:14:47.439Z,13.22
2023-04-20T16:17:14.210Z,13.42
2023-04-20T16:19:41.506Z,13.48
2023-04-20T16:22:08.075Z,13.32
2023-04-20T16:24:34.614Z,13.05
2023-04-20T16:27:01.666Z,12.76
2023-04-20T16:29:28.741Z,12.50
2023-04-20T16:34:21.973Z,12.14
2023-04-20T16:36:50.275Z,12.00
2023-04-20T16:39:18.616Z,11.82
2023-04-20T16:41:45.545Z,11.75
2023-04-20T16:44:16.620Z,11.74
2023-04-20T16:46:44.232Z,11.62
2023-04-20T16:49:10.860Z,11.38
2023-04-20T16:51:37.407Z,11.20
2023-04-20T16:54:04.166Z,11.10
2023-04-20T16:56:30.812Z,11.06
2023-04-20T16:58:57.360Z,10.97
2023-04-20T17:01:24.052Z,10.92
2023-04-20T17:03:51.400Z,10.90
2023-04-20T17:06:18.072Z,10.88
2023-04-20T17:08:44.808Z,10.85
2023-04-20T17:11:11.422Z,10.81
2023-04-20T17:13:38.205Z,10.73
2023-04-20T17:16:05.375Z,10.67
2023-04-20T17:18:34.253Z,10.66
2023-04-20T17:21:01.395Z,10.62
2023-04-20T17:23:28.097Z,10.54
2023-04-20T17:25:54.788Z,10.42
2023-04-20T17:28:21.341Z,10.38
2023-04-20T17:30:47.893Z,10.31
2023-04-20T17:33:14.491Z,10.18
2023-04-20T17:35:41.023Z,10.10
2023-04-20T17:38:07.560Z,10.08
2023-04-20T17:40:34.271Z,10.08
2023-04-20T17:43:02.008Z,10.05
2023-04-20T17:45:28.984Z,9.99
2023-04-20T17:47:55.817Z,9.94
2023-04-20T17:50:22.867Z,9.93
2023-04-20T17:52:49.669Z,9.90
2023-04-20T17:55:16.243Z,9.90
2023-04-20T17:57:42.757Z,9.87
2023-04-20T18:00:11.786Z,9.85
2023-04-20T18:02:39.299Z,9.78
2023-04-20T18:05:06.530Z,9.74
2023-04-20T18:07:33.348Z,9.67
2023-04-20T18:09:59.854Z,9.60
2023-04-20T18:12:26.467Z,9.56
2023-04-20T18:14:53.137Z,9.50
2023-04-20T18:17:19.669Z,9.38
2023-04-20T18:19:46.257Z,9.36
2023-04-20T18:22:12.811Z,9.34
2023-04-20T18:24:39.365Z,9.34
2023-04-20T18:27:05.962Z,9.32
2023-04-20T18:29:32.530Z,9.29
2023-04-20T18:32:01.185Z,9.30
2023-04-20T18:34:31.104Z,9.28
2023-04-20T18:36:58.280Z,9.23
2023-04-20T18:39:26.312Z,9.14
2023-04-20T18:41:52.838Z,9.11
2023-04-20T18:44:19.797Z,9.10
2023-04-20T18:46:46.652Z,9.07
2023-04-20T18:49:13.519Z,9.02
2023-04-20T18:51:40.241Z,8.98
2023-04-20T18:54:07.008Z,8.97
2023-04-20T18:56:33.806Z,8.94
2023-04-20T18:59:01.539Z,8.92
2023-04-20T19:01:28.639Z,8.83
2023-04-20T19:03:55.629Z,8.77
2023-04-20T19:06:22.399Z,8.73
2023-04-20T19:08:50.604Z,8.70
2023-04-20T19:11:17.288Z,8.70
2023-04-20T19:13:45.386Z,8.70
2023-04-20T19:16:12.890Z,8.71
2023-04-20T19:18:39.847Z,8.76
2023-04-20T19:21:06.680Z,8.79
2023-04-20T19:23:35.651Z,8.82
2023-04-20T19:26:02.582Z,8.89
2023-04-20T19:28:29.134Z,8.92
2023-04-20T19:30:56.023Z,8.94
2023-04-20T19:33:22.644Z,8.96
2023-04-20T19:35:51.056Z,9.01
2023-04-20T19:38:18.879Z,9.05
2023-04-20T19:40:46.182Z,9.06
2023-04-20T19:43:12.899Z,9.08
2023-04-20T19:45:40.709Z,9.11
2023-04-20T19:48:07.401Z,9.14
2023-04-20T19:50:34.355Z,9.16
2023-04-20T19:53:01.060Z,9.19
2023-04-20T19:55:27.782Z,9.20
2023-04-20T19:57:54.433Z,9.17
2023-04-20T20:00:21.279Z,9.16
2023-04-20T20:02:48.020Z,9.14
2023-04-20T20:05:14.771Z,9.13
2023-04-20T20:07:41.466Z,9.08
2023-04-20T20:10:08.361Z,9.03
2023-04-20T20:12:34.975Z,9.00
2023-04-20T20:15:01.622Z,8.97
2023-04-20T20:17:28.266Z,8.93
2023-04-20T20:19:55.943Z,8.90
2023-04-20T20:22:22.634Z,8.87
2023-04-20T20:24:51.159Z,8.85
2023-04-20T20:27:17.856Z,8.85
2023-04-20T20:29:44.445Z,8.87
2023-04-20T20:32:13.658Z,8.88
2023-04-20T20:34:41.424Z,8.90
2023-04-20T20:37:10.516Z,8.92
2023-04-20T20:39:37.579Z,8.91
2023-04-20T20:42:04.803Z,8.91
2023-04-20T20:44:39.103Z,8.93
2023-04-20T20:47:06.653Z,8.97
2023-04-20T20:49:33.430Z,8.94
2023-04-20T20:52:01.388Z,8.92
2023-04-20T20:54:27.966Z,8.92
2023-04-20T20:56:54.589Z,8.90
2023-04-20T20:59:21.417Z,8.88
2023-04-20T21:01:47.992Z,8.83
2023-04-20T21:04:14.686Z,8.77
2023-04-20T21:06:41.381Z,8.73
2023-04-20T21:09:07.877Z,8.68
2023-04-20T21:11:34.532Z,8.62
2023-04-20T21:14:02.791Z,8.55
2023-04-20T21:16:29.549Z,8.51
2023-04-20T21:18:56.345Z,8.49
2023-04-20T21:21:23.218Z,8.52
2023-04-20T21:23:50.277Z,8.55
2023-04-20T21:26:16.852Z,8.59
2023-04-20T21:28:43.405Z,8.61
2023-04-20T21:31:10.259Z,8.60
2023-04-20T21:33:36.957Z,8.57
2023-04-20T21:36:04.100Z,8.55
2023-04-20T21:38:30.777Z,8.53
2023-04-20T21:40:57.412Z,8.53
2023-04-20T21:43:24.082Z,8.54
2023-04-20T21:45:51.573Z,8.52
2023-04-20T21:48:18.456Z,8.55
2023-04-20T21:50:45.031Z,8.58
2023-04-20T21:53:11.651Z,8.60
2023-04-20T21:55:38.250Z,8.59
2023-04-20T21:58:04.791Z,8.59
2023-04-20T22:00:31.596Z,8.59
2023-04-20T22:02:58.403Z,8.56
2023-04-20T22:05:25.063Z,8.50
2023-04-20T22:07:53.194Z,8.47
2023-04-20T22:10:20.306Z,8.45
2023-04-20T22:12:46.863Z,8.41
2023-04-20T22:15:14.806Z,8.39
2023-04-20T22:17:45.416Z,8.37
2023-04-20T22:20:13.266Z,8.34
2023-04-20T22:22:39.887Z,8.33
2023-04-20T22:25:07.823Z,8.32
2023-04-20T22:27:35.895Z,8.33
2023-04-20T22:30:02.882Z,8.34
2023-04-20T22:32:29.474Z,8.35
2023-04-20T22:34:56.424Z,8.34
2023-04-20T22:37:22.953Z,8.34
2023-04-20T22:39:49.561Z,8.32
2023-04-20T22:42:16.112Z,8.31
2023-04-20T22:44:42.635Z,8.32
2023-04-20T22:47:09.230Z,8.34
2023-04-20T22:49:35.988Z,8.37
2023-04-20T22:52:02.819Z,8.36
2023-04-20T22:54:29.969Z,8.39
2023-04-20T22:56:57.046Z,8.37
2023-04-20T22:59:23.653Z,8.34
2023-04-20T23:01:50.514Z,8.34
2023-04-20T23:04:17.281Z,8.34
2023-04-20T23:06:45.251Z,8.31
2023-04-20T23:09:13.289Z,8.29
2023-04-20T23:11:40.381Z,8.30
2023-04-20T23:14:08.082Z,8.28
2023-04-20T23:16:35.350Z,8.27
2023-04-20T23:19:02.222Z,8.25
2023-04-20T23:21:28.991Z,8.26
2023-04-20T23:23:58.603Z,8.25
2023-04-20T23:26:25.371Z,8.22
2023-04-20T23:28:52.801Z,8.20
2023-04-20T23:31:20.208Z,8.22
2023-04-20T23:33:47.767Z,8.23
2023-04-20T23:36:14.600Z,8.27
2023-04-20T23:38:41.487Z,8.29
2023-04-20T23:41:10.230Z,8.32
2023-04-20T23:43:38.485Z,8.35
2023-04-20T23:46:06.392Z,8.36
2023-04-20T23:48:33.643Z,8.33
2023-04-20T23:51:00.780Z,8.35
2023-04-20T23:53:27.432Z,8.34
2023-04-20T23:55:56.810Z,8.31
2023-04-20T23:58:24.704Z,8.23
